sensor_id;sensor_type;location;lat;lon;timestamp;P1;durP1;ratioP1;P2;durP2;ratioP2
24635;SDS011;12772;49.794;10.024;2022-11-20T00:01:46;21.75;;;16.95;;
24635;SDS011;12772;49.794;10.024;2022-11-20T00:05:48;21.45;;;16.45;;
24635;SDS011;12772;49.794;10.024;2022-11-20T00:09:50;20.05;;;16.15;;
24635;SDS011;12772;49.794;10.024;2022-11-20T00:13:53;21.25;;;16.42;;
24635;SDS011;12772;49.794;10.024;2022-11-20T00:17:57;20.35;;;15.85;;
24635;SDS011;12772;49.794;10.024;2022-11-20T00:21:59;22.55;;;16.05;;
24635;SDS011;12772;49.794;10.024;2022-11-20T00:26:04;20.63;;;16.77;;
24635;SDS011;12772;49.794;10.024;2022-11-20T00:30:08;20.13;;;16.20;;
24635;SDS011;12772;49.794;10.024;2022-11-20T00:34:11;22.23;;;16.27;;
24635;SDS011;12772;49.794;10.024;2022-11-20T00:38:13;20.83;;;16.38;;
24635;SDS011;12772;49.794;10.024;2022-11-20T00:42:15;22.27;;;15.82;;
24635;SDS011;12772;49.794;10.024;2022-11-20T00:46:18;21.45;;;16.27;;
24635;SDS011;12772;49.794;10.024;2022-11-20T00:50:21;21.90;;;16.13;;
24635;SDS011;12772;49.794;10.024;2022-11-20T00:54:23;20.35;;;16.38;;
24635;SDS011;12772;49.794;10.024;2022-11-20T00:58:28;18.17;;;15.23;;
24635;SDS011;12772;49.794;10.024;2022-11-20T01:02:35;20.40;;;15.52;;
24635;SDS011;12772;49.794;10.024;2022-11-20T01:06:37;21.60;;;16.20;;
24635;SDS011;12772;49.794;10.024;2022-11-20T01:10:40;19.38;;;15.93;;
24635;SDS011;12772;49.794;10.024;2022-11-20T01:14:42;22.33;;;16.65;;
24635;SDS011;12772;49.794;10.024;2022-11-20T01:18:46;22.05;;;17.20;;
24635;SDS011;12772;49.794;10.024;2022-11-20T01:22:49;18.17;;;14.85;;
24635;SDS011;12772;49.794;10.024;2022-11-20T01:26:51;21.17;;;16.48;;
24635;SDS011;12772;49.794;10.024;2022-11-20T01:30:53;23.02;;;17.65;;
24635;SDS011;12772;49.794;10.024;2022-11-20T01:34:55;22.33;;;16.92;;
24635;SDS011;12772;49.794;10.024;2022-11-20T01:38:58;20.60;;;15.70;;
24635;SDS011;12772;49.794;10.024;2022-11-20T01:43:11;23.92;;;16.15;;
24635;SDS011;12772;49.794;10.024;2022-11-20T01:47:30;19.95;;;15.90;;
24635;SDS011;12772;49.794;10.024;2022-11-20T01:51:45;19.80;;;15.10;;
24635;SDS011;12772;49.794;10.024;2022-11-20T01:55:53;19.98;;;15.45;;
24635;SDS011;12772;49.794;10.024;2022-11-20T01:59:59;21.52;;;16.92;;
24635;SDS011;12772;49.794;10.024;2022-11-20T02:04:07;20.85;;;15.80;;
24635;SDS011;12772;49.794;10.024;2022-11-20T02:08:11;21.77;;;16.85;;
24635;SDS011;12772;49.794;10.024;2022-11-20T02:12:13;21.83;;;16.33;;
24635;SDS011;12772;49.794;10.024;2022-11-20T02:16:31;23.35;;;17.92;;
24635;SDS011;12772;49.794;10.024;2022-11-20T02:20:39;23.60;;;18.48;;
24635;SDS011;12772;49.794;10.024;2022-11-20T02:24:45;20.65;;;15.80;;
24635;SDS011;12772;49.794;10.024;2022-11-20T02:28:48;20.27;;;16.58;;
24635;SDS011;12772;49.794;10.024;2022-11-20T02:32:51;21.23;;;15.55;;
24635;SDS011;12772;49.794;10.024;2022-11-20T02:36:53;22.75;;;16.92;;
24635;SDS011;12772;49.794;10.024;2022-11-20T02:40:56;20.95;;;15.60;;
24635;SDS011;12772;49.794;10.024;2022-11-20T02:44:58;21.70;;;17.10;;
24635;SDS011;12772;49.794;10.024;2022-11-20T02:49:02;21.20;;;16.13;;
24635;SDS011;12772;49.794;10.024;2022-11-20T02:53:04;21.25;;;16.58;;
24635;SDS011;12772;49.794;10.024;2022-11-20T02:57:07;23.17;;;16.77;;
24635;SDS011;12772;49.794;10.024;2022-11-20T03:01:09;22.13;;;16.85;;
24635;SDS011;12772;49.794;10.024;2022-11-20T03:05:11;22.50;;;17.52;;
24635;SDS011;12772;49.794;10.024;2022-11-20T03:09:13;22.92;;;16.67;;
24635;SDS011;12772;49.794;10.024;2022-11-20T03:13:15;23.27;;;17.40;;
24635;SDS011;12772;49.794;10.024;2022-11-20T03:17:17;20.45;;;15.43;;
24635;SDS011;12772;49.794;10.024;2022-11-20T03:21:19;22.02;;;17.20;;
24635;SDS011;12772;49.794;10.024;2022-11-20T03:25:21;20.65;;;16.58;;
24635;SDS011;12772;49.794;10.024;2022-11-20T03:29:24;21.58;;;16.35;;
24635;SDS011;12772;49.794;10.024;2022-11-20T03:33:27;22.20;;;16.88;;
24635;SDS011;12772;49.794;10.024;2022-11-20T03:37:29;23.25;;;16.75;;
24635;SDS011;12772;49.794;10.024;2022-11-20T03:41:35;22.13;;;16.35;;
24635;SDS011;12772;49.794;10.024;2022-11-20T03:45:38;22.55;;;17.25;;
24635;SDS011;12772;49.794;10.024;2022-11-20T03:49:40;20.77;;;15.73;;
24635;SDS011;12772;49.794;10.024;2022-11-20T03:53:43;21.85;;;16.77;;
24635;SDS011;12772;49.794;10.024;2022-11-20T03:57:46;22.17;;;16.80;;
24635;SDS011;12772;49.794;10.024;2022-11-20T04:01:48;22.17;;;17.45;;
24635;SDS011;12772;49.794;10.024;2022-11-20T04:05:50;22.40;;;16.67;;
24635;SDS011;12772;49.794;10.024;2022-11-20T04:09:52;20.87;;;16.00;;
24635;SDS011;12772;49.794;10.024;2022-11-20T04:13:55;22.58;;;16.02;;
24635;SDS011;12772;49.794;10.024;2022-11-20T04:17:58;23.17;;;16.65;;
24635;SDS011;12772;49.794;10.024;2022-11-20T04:22:00;22.10;;;16.83;;
24635;SDS011;12772;49.794;10.024;2022-11-20T04:26:08;22.13;;;16.90;;
24635;SDS011;12772;49.794;10.024;2022-11-20T04:30:12;22.58;;;17.48;;
24635;SDS011;12772;49.794;10.024;2022-11-20T04:34:14;25.05;;;17.95;;
24635;SDS011;12772;49.794;10.024;2022-11-20T04:38:16;24.50;;;16.35;;
24635;SDS011;12772;49.794;10.024;2022-11-20T04:42:18;23.88;;;17.95;;
24635;SDS011;12772;49.794;10.024;2022-11-20T04:46:34;25.15;;;18.33;;
24635;SDS011;12772;49.794;10.024;2022-11-20T04:50:39;22.15;;;16.58;;
24635;SDS011;12772;49.794;10.024;2022-11-20T04:54:41;24.20;;;18.33;;
24635;SDS011;12772;49.794;10.024;2022-11-20T04:58:44;21.08;;;16.27;;
24635;SDS011;12772;49.794;10.024;2022-11-20T05:02:46;19.80;;;16.50;;
24635;SDS011;12772;49.794;10.024;2022-11-20T05:06:49;24.50;;;18.17;;
24635;SDS011;12772;49.794;10.024;2022-11-20T05:10:51;22.25;;;16.38;;
24635;SDS011;12772;49.794;10.024;2022-11-20T05:14:53;24.10;;;17.48;;
24635;SDS011;12772;49.794;10.024;2022-11-20T05:18:55;21.75;;;16.23;;
24635;SDS011;12772;49.794;10.024;2022-11-20T05:22:57;22.67;;;16.85;;
24635;SDS011;12772;49.794;10.024;2022-11-20T05:26:59;23.00;;;16.92;;
24635;SDS011;12772;49.794;10.024;2022-11-20T05:35:32;23.85;;;17.80;;
24635;SDS011;12772;49.794;10.024;2022-11-20T05:39:34;22.55;;;17.52;;
24635;SDS011;12772;49.794;10.024;2022-11-20T05:43:37;23.15;;;17.55;;
24635;SDS011;12772;49.794;10.024;2022-11-20T05:47:40;21.92;;;16.75;;
24635;SDS011;12772;49.794;10.024;2022-11-20T05:51:42;22.35;;;16.33;;
24635;SDS011;12772;49.794;10.024;2022-11-20T05:55:44;22.38;;;17.15;;
24635;SDS011;12772;49.794;10.024;2022-11-20T05:59:46;21.48;;;16.63;;
24635;SDS011;12772;49.794;10.024;2022-11-20T06:03:49;24.23;;;17.00;;
24635;SDS011;12772;49.794;10.024;2022-11-20T06:07:51;22.85;;;16.95;;
24635;SDS011;12772;49.794;10.024;2022-11-20T06:11:53;23.45;;;17.45;;
24635;SDS011;12772;49.794;10.024;2022-11-20T06:15:59;26.27;;;17.23;;
24635;SDS011;12772;49.794;10.024;2022-11-20T06:20:01;22.48;;;17.10;;
24635;SDS011;12772;49.794;10.024;2022-11-20T06:24:03;23.70;;;16.95;;
24635;SDS011;12772;49.794;10.024;2022-11-20T06:28:05;26.27;;;18.27;;
24635;SDS011;12772;49.794;10.024;2022-11-20T06:32:09;22.65;;;16.13;;
24635;SDS011;12772;49.794;10.024;2022-11-20T06:36:12;25.17;;;18.30;;
24635;SDS011;12772;49.794;10.024;2022-11-20T06:40:16;25.92;;;17.58;;
24635;SDS011;12772;49.794;10.024;2022-11-20T06:44:18;28.52;;;20.15;;
24635;SDS011;12772;49.794;10.024;2022-11-20T06:48:20;26.83;;;18.80;;
24635;SDS011;12772;49.794;10.024;2022-11-20T06:52:22;22.55;;;17.85;;
24635;SDS011;12772;49.794;10.024;2022-11-20T06:56:24;23.35;;;17.58;;
24635;SDS011;12772;49.794;10.024;2022-11-20T07:00:26;26.80;;;16.75;;
24635;SDS011;12772;49.794;10.024;2022-11-20T07:04:28;24.75;;;17.20;;
24635;SDS011;12772;49.794;10.024;2022-11-20T07:08:31;26.27;;;18.55;;
24635;SDS011;12772;49.794;10.024;2022-11-20T07:12:33;25.48;;;17.75;;
24635;SDS011;12772;49.794;10.024;2022-11-20T07:16:36;25.73;;;18.60;;
24635;SDS011;12772;49.794;10.024;2022-11-20T07:20:38;28.30;;;19.52;;
24635;SDS011;12772;49.794;10.024;2022-11-20T07:24:40;31.92;;;19.77;;
24635;SDS011;12772;49.794;10.024;2022-11-20T07:28:45;27.25;;;19.75;;
24635;SDS011;12772;49.794;10.024;2022-11-20T07:32:47;28.88;;;19.95;;
24635;SDS011;12772;49.794;10.024;2022-11-20T07:36:52;25.23;;;18.50;;
24635;SDS011;12772;49.794;10.024;2022-11-20T07:40:55;28.25;;;19.80;;
24635;SDS011;12772;49.794;10.024;2022-11-20T07:44:57;30.52;;;20.42;;
24635;SDS011;12772;49.794;10.024;2022-11-20T07:48:59;27.42;;;19.85;;
24635;SDS011;12772;49.794;10.024;2022-11-20T07:53:02;35.45;;;21.02;;
24635;SDS011;12772;49.794;10.024;2022-11-20T07:57:05;26.60;;;18.63;;
24635;SDS011;12772;49.794;10.024;2022-11-20T08:01:07;29.17;;;18.48;;
24635;SDS011;12772;49.794;10.024;2022-11-20T08:05:10;29.48;;;18.42;;
24635;SDS011;12772;49.794;10.024;2022-11-20T08:09:12;29.92;;;18.83;;
24635;SDS011;12772;49.794;10.024;2022-11-20T08:13:14;31.27;;;18.58;;
24635;SDS011;12772;49.794;10.024;2022-11-20T08:17:34;31.05;;;20.05;;
24635;SDS011;12772;49.794;10.024;2022-11-20T08:21:36;31.67;;;20.27;;
24635;SDS011;12772;49.794;10.024;2022-11-20T08:25:38;28.85;;;19.42;;
24635;SDS011;12772;49.794;10.024;2022-11-20T08:29:40;30.25;;;20.73;;
24635;SDS011;12772;49.794;10.024;2022-11-20T08:33:42;26.98;;;18.67;;
24635;SDS011;12772;49.794;10.024;2022-11-20T08:37:47;27.92;;;17.83;;
24635;SDS011;12772;49.794;10.024;2022-11-20T08:41:50;30.38;;;18.55;;
24635;SDS011;12772;49.794;10.024;2022-11-20T08:45:52;25.83;;;18.65;;
24635;SDS011;12772;49.794;10.024;2022-11-20T08:49:54;27.08;;;18.48;;
24635;SDS011;12772;49.794;10.024;2022-11-20T08:53:56;28.60;;;20.58;;
24635;SDS011;12772;49.794;10.024;2022-11-20T08:57:58;25.73;;;17.55;;
24635;SDS011;12772;49.794;10.024;2022-11-20T09:02:04;29.48;;;20.50;;
24635;SDS011;12772;49.794;10.024;2022-11-20T09:06:06;27.67;;;19.33;;
24635;SDS011;12772;49.794;10.024;2022-11-20T09:10:08;24.80;;;17.67;;
24635;SDS011;12772;49.794;10.024;2022-11-20T09:14:10;25.63;;;18.15;;
24635;SDS011;12772;49.794;10.024;2022-11-20T09:18:13;25.48;;;18.27;;
24635;SDS011;12772;49.794;10.024;2022-11-20T09:22:15;28.23;;;18.88;;
24635;SDS011;12772;49.794;10.024;2022-11-20T09:26:17;23.98;;;16.15;;
24635;SDS011;12772;49.794;10.024;2022-11-20T09:30:19;23.38;;;16.05;;
24635;SDS011;12772;49.794;10.024;2022-11-20T09:34:21;21.10;;;15.73;;
24635;SDS011;12772;49.794;10.024;2022-11-20T09:38:23;23.48;;;16.13;;
24635;SDS011;12772;49.794;10.024;2022-11-20T09:47:11;21.65;;;16.10;;
24635;SDS011;12772;49.794;10.024;2022-11-20T09:55:33;23.10;;;17.17;;
24635;SDS011;12772;49.794;10.024;2022-11-20T09:59:41;25.20;;;17.98;;
24635;SDS011;12772;49.794;10.024;2022-11-20T10:12:41;24.60;;;18.30;;
24635;SDS011;12772;49.794;10.024;2022-11-20T10:30:19;30.10;;;19.80;;
24635;SDS011;12772;49.794;10.024;2022-11-20T10:34:38;27.30;;;18.83;;
24635;SDS011;12772;49.794;10.024;2022-11-20T10:39:00;27.27;;;18.92;;
24635;SDS011;12772;49.794;10.024;2022-11-20T10:47:14;24.40;;;18.30;;
24635;SDS011;12772;49.794;10.024;2022-11-20T10:51:21;21.75;;;16.20;;
24635;SDS011;12772;49.794;10.024;2022-11-20T10:55:45;21.77;;;15.77;;
24635;SDS011;12772;49.794;10.024;2022-11-20T11:00:09;19.38;;;13.65;;
24635;SDS011;12772;49.794;10.024;2022-11-20T11:08:32;22.10;;;14.95;;
24635;SDS011;12772;49.794;10.024;2022-11-20T11:12:42;22.42;;;15.20;;
24635;SDS011;12772;49.794;10.024;2022-11-20T11:16:50;18.95;;;14.20;;
24635;SDS011;12772;49.794;10.024;2022-11-20T11:20:53;19.30;;;14.60;;
24635;SDS011;12772;49.794;10.024;2022-11-20T11:24:56;17.85;;;13.23;;
24635;SDS011;12772;49.794;10.024;2022-11-20T11:28:59;16.98;;;13.10;;
24635;SDS011;12772;49.794;10.024;2022-11-20T11:33:04;19.85;;;15.43;;
24635;SDS011;12772;49.794;10.024;2022-11-20T11:37:15;16.08;;;12.80;;
24635;SDS011;12772;49.794;10.024;2022-11-20T11:41:20;17.55;;;12.63;;
24635;SDS011;12772;49.794;10.024;2022-11-20T11:45:26;15.27;;;12.48;;
24635;SDS011;12772;49.794;10.024;2022-11-20T11:49:29;18.35;;;14.38;;
24635;SDS011;12772;49.794;10.024;2022-11-20T11:53:40;15.82;;;12.95;;
24635;SDS011;12772;49.794;10.024;2022-11-20T11:57:52;14.55;;;11.13;;
24635;SDS011;12772;49.794;10.024;2022-11-20T12:02:01;14.60;;;11.48;;
24635;SDS011;12772;49.794;10.024;2022-11-20T12:06:15;12.93;;;10.18;;
24635;SDS011;12772;49.794;10.024;2022-11-20T12:14:37;12.20;;;10.00;;
24635;SDS011;12772;49.794;10.024;2022-11-20T12:18:42;16.75;;;12.18;;
24635;SDS011;12772;49.794;10.024;2022-11-20T12:22:55;15.25;;;11.27;;
24635;SDS011;12772;49.794;10.024;2022-11-20T12:31:25;22.70;;;15.95;;
24635;SDS011;12772;49.794;10.024;2022-11-20T12:40:09;16.88;;;11.88;;
24635;SDS011;12772;49.794;10.024;2022-11-20T13:01:58;17.63;;;14.02;;
24635;SDS011;12772;49.794;10.024;2022-11-20T13:06:16;13.82;;;11.80;;
24635;SDS011;12772;49.794;10.024;2022-11-20T13:14:49;12.00;;;10.63;;
24635;SDS011;12772;49.794;10.024;2022-11-20T13:18:57;11.43;;;10.13;;
24635;SDS011;12772;49.794;10.024;2022-11-20T13:23:04;16.77;;;14.98;;
24635;SDS011;12772;49.794;10.024;2022-11-20T13:31:32;12.45;;;11.15;;
24635;SDS011;12772;49.794;10.024;2022-11-20T13:35:42;10.18;;;9.18;;
24635;SDS011;12772;49.794;10.024;2022-11-20T13:40:11;10.48;;;9.38;;
24635;SDS011;12772;49.794;10.024;2022-11-20T13:44:22;9.30;;;8.13;;
24635;SDS011;12772;49.794;10.024;2022-11-20T13:48:38;9.35;;;7.50;;
24635;SDS011;12772;49.794;10.024;2022-11-20T13:53:04;7.93;;;7.15;;
24635;SDS011;12772;49.794;10.024;2022-11-20T13:57:23;9.82;;;8.60;;
24635;SDS011;12772;49.794;10.024;2022-11-20T14:01:58;8.45;;;7.47;;
24635;SDS011;12772;49.794;10.024;2022-11-20T14:06:02;8.82;;;7.65;;
24635;SDS011;12772;49.794;10.024;2022-11-20T14:14:29;8.77;;;7.63;;
24635;SDS011;12772;49.794;10.024;2022-11-20T14:18:34;9.95;;;8.02;;
24635;SDS011;12772;49.794;10.024;2022-11-20T14:22:36;8.20;;;7.10;;
24635;SDS011;12772;49.794;10.024;2022-11-20T14:26:41;8.38;;;7.47;;
24635;SDS011;12772;49.794;10.024;2022-11-20T14:30:46;8.30;;;7.35;;
24635;SDS011;12772;49.794;10.024;2022-11-20T14:34:49;12.73;;;10.77;;
24635;SDS011;12772;49.794;10.024;2022-11-20T14:38:52;19.95;;;15.30;;
24635;SDS011;12772;49.794;10.024;2022-11-20T14:42:55;14.55;;;11.85;;
24635;SDS011;12772;49.794;10.024;2022-11-20T14:46:59;12.20;;;10.88;;
24635;SDS011;12772;49.794;10.024;2022-11-20T14:51:03;13.18;;;11.77;;
24635;SDS011;12772;49.794;10.024;2022-11-20T14:55:05;13.45;;;11.68;;
24635;SDS011;12772;49.794;10.024;2022-11-20T14:59:09;13.05;;;11.75;;
24635;SDS011;12772;49.794;10.024;2022-11-20T15:03:15;9.77;;;8.77;;
24635;SDS011;12772;49.794;10.024;2022-11-20T15:07:24;10.73;;;9.73;;
24635;SDS011;12772;49.794;10.024;2022-11-20T15:11:35;10.05;;;8.98;;
24635;SDS011;12772;49.794;10.024;2022-11-20T15:19:47;8.65;;;7.30;;
24635;SDS011;12772;49.794;10.024;2022-11-20T15:23:49;8.57;;;7.78;;
24635;SDS011;12772;49.794;10.024;2022-11-20T15:27:53;10.43;;;8.93;;
24635;SDS011;12772;49.794;10.024;2022-11-20T15:31:57;9.98;;;8.20;;
24635;SDS011;12772;49.794;10.024;2022-11-20T15:35:59;9.63;;;8.63;;
24635;SDS011;12772;49.794;10.024;2022-11-20T15:40:02;11.55;;;8.30;;
24635;SDS011;12772;49.794;10.024;2022-11-20T15:44:05;10.82;;;8.75;;
24635;SDS011;12772;49.794;10.024;2022-11-20T15:48:08;10.52;;;8.90;;
24635;SDS011;12772;49.794;10.024;2022-11-20T15:52:13;9.18;;;7.80;;
24635;SDS011;12772;49.794;10.024;2022-11-20T15:56:16;10.05;;;8.70;;
24635;SDS011;12772;49.794;10.024;2022-11-20T16:00:18;10.07;;;8.95;;
24635;SDS011;12772;49.794;10.024;2022-11-20T16:04:21;13.63;;;10.80;;
24635;SDS011;12772;49.794;10.024;2022-11-20T16:08:23;11.60;;;10.18;;
24635;SDS011;12772;49.794;10.024;2022-11-20T16:12:25;11.52;;;10.20;;
24635;SDS011;12772;49.794;10.024;2022-11-20T16:16:45;12.63;;;10.18;;
24635;SDS011;12772;49.794;10.024;2022-11-20T16:20:48;11.30;;;10.10;;
24635;SDS011;12772;49.794;10.024;2022-11-20T16:24:52;9.55;;;8.30;;
24635;SDS011;12772;49.794;10.024;2022-11-20T16:28:54;11.65;;;9.10;;
24635;SDS011;12772;49.794;10.024;2022-11-20T16:32:57;9.23;;;7.88;;
24635;SDS011;12772;49.794;10.024;2022-11-20T16:36:59;9.20;;;8.13;;
24635;SDS011;12772;49.794;10.024;2022-11-20T16:41:01;9.15;;;8.15;;
24635;SDS011;12772;49.794;10.024;2022-11-20T16:45:04;8.63;;;7.38;;
24635;SDS011;12772;49.794;10.024;2022-11-20T16:49:10;12.82;;;10.18;;
24635;SDS011;12772;49.794;10.024;2022-11-20T16:53:15;11.63;;;9.18;;
24635;SDS011;12772;49.794;10.024;2022-11-20T16:57:18;11.27;;;8.77;;
24635;SDS011;12772;49.794;10.024;2022-11-20T17:01:21;13.02;;;9.68;;
24635;SDS011;12772;49.794;10.024;2022-11-20T17:05:24;11.88;;;8.27;;
24635;SDS011;12772;49.794;10.024;2022-11-20T17:09:27;9.20;;;7.90;;
24635;SDS011;12772;49.794;10.024;2022-11-20T17:13:29;10.35;;;8.75;;
24635;SDS011;12772;49.794;10.024;2022-11-20T17:17:31;11.60;;;7.82;;
24635;SDS011;12772;49.794;10.024;2022-11-20T17:21:34;8.18;;;6.95;;
24635;SDS011;12772;49.794;10.024;2022-11-20T17:25:36;10.45;;;7.95;;
24635;SDS011;12772;49.794;10.024;2022-11-20T17:29:38;11.05;;;9.20;;
24635;SDS011;12772;49.794;10.024;2022-11-20T17:33:41;10.45;;;8.80;;
24635;SDS011;12772;49.794;10.024;2022-11-20T17:37:44;10.00;;;8.20;;
24635;SDS011;12772;49.794;10.024;2022-11-20T17:41:46;9.80;;;8.80;;
24635;SDS011;12772;49.794;10.024;2022-11-20T17:46:10;9.90;;;8.88;;
24635;SDS011;12772;49.794;10.024;2022-11-20T17:50:13;8.93;;;8.02;;
24635;SDS011;12772;49.794;10.024;2022-11-20T17:54:15;10.43;;;9.32;;
24635;SDS011;12772;49.794;10.024;2022-11-20T17:58:17;13.93;;;10.27;;
24635;SDS011;12772;49.794;10.024;2022-11-20T18:02:19;13.82;;;11.02;;
24635;SDS011;12772;49.794;10.024;2022-11-20T18:06:23;8.63;;;7.72;;
24635;SDS011;12772;49.794;10.024;2022-11-20T18:10:28;9.88;;;7.30;;
24635;SDS011;12772;49.794;10.024;2022-11-20T18:14:30;7.72;;;6.22;;
24635;SDS011;12772;49.794;10.024;2022-11-20T18:18:34;8.07;;;6.03;;
24635;SDS011;12772;49.794;10.024;2022-11-20T18:22:36;9.07;;;6.30;;
24635;SDS011;12772;49.794;10.024;2022-11-20T18:26:38;7.43;;;6.57;;
24635;SDS011;12772;49.794;10.024;2022-11-20T18:30:40;4.53;;;4.13;;
24635;SDS011;12772;49.794;10.024;2022-11-20T18:34:42;7.45;;;5.25;;
24635;SDS011;12772;49.794;10.024;2022-11-20T18:38:45;7.20;;;5.05;;
24635;SDS011;12772;49.794;10.024;2022-11-20T18:42:48;9.85;;;5.53;;
24635;SDS011;12772;49.794;10.024;2022-11-20T18:47:09;5.28;;;4.78;;
24635;SDS011;12772;49.794;10.024;2022-11-20T18:51:12;6.85;;;4.75;;
24635;SDS011;12772;49.794;10.024;2022-11-20T18:55:15;4.63;;;4.18;;
24635;SDS011;12772;49.794;10.024;2022-11-20T18:59:18;5.10;;;3.80;;
24635;SDS011;12772;49.794;10.024;2022-11-20T19:03:20;6.38;;;4.07;;
24635;SDS011;12772;49.794;10.024;2022-11-20T19:07:22;4.82;;;4.30;;
24635;SDS011;12772;49.794;10.024;2022-11-20T19:11:25;5.88;;;4.05;;
24635;SDS011;12772;49.794;10.024;2022-11-20T19:15:27;5.80;;;4.32;;
24635;SDS011;12772;49.794;10.024;2022-11-20T19:19:29;5.80;;;3.63;;
24635;SDS011;12772;49.794;10.024;2022-11-20T19:23:31;4.88;;;3.58;;
24635;SDS011;12772;49.794;10.024;2022-11-20T19:27:33;6.30;;;3.42;;
24635;SDS011;12772;49.794;10.024;2022-11-20T19:31:35;4.45;;;3.70;;
24635;SDS011;12772;49.794;10.024;2022-11-20T19:35:37;3.40;;;2.83;;
24635;SDS011;12772;49.794;10.024;2022-11-20T19:39:39;3.78;;;2.97;;
24635;SDS011;12772;49.794;10.024;2022-11-20T19:43:41;6.13;;;3.63;;
24635;SDS011;12772;49.794;10.024;2022-11-20T19:47:43;6.35;;;3.80;;
24635;SDS011;12772;49.794;10.024;2022-11-20T19:51:46;3.88;;;2.92;;
24635;SDS011;12772;49.794;10.024;2022-11-20T19:55:53;3.55;;;3.25;;
24635;SDS011;12772;49.794;10.024;2022-11-20T19:59:59;4.40;;;3.00;;
24635;SDS011;12772;49.794;10.024;2022-11-20T20:04:01;4.25;;;2.80;;
24635;SDS011;12772;49.794;10.024;2022-11-20T20:08:04;3.40;;;2.47;;
24635;SDS011;12772;49.794;10.024;2022-11-20T20:12:06;3.55;;;2.50;;
24635;SDS011;12772;49.794;10.024;2022-11-20T20:16:09;2.33;;;1.90;;
24635;SDS011;12772;49.794;10.024;2022-11-20T20:20:16;2.63;;;1.88;;
24635;SDS011;12772;49.794;10.024;2022-11-20T20:24:18;3.33;;;2.50;;
24635;SDS011;12772;49.794;10.024;2022-11-20T20:28:20;2.80;;;2.38;;
24635;SDS011;12772;49.794;10.024;2022-11-20T20:32:22;5.15;;;3.28;;
24635;SDS011;12772;49.794;10.024;2022-11-20T20:36:24;10.65;;;7.10;;
24635;SDS011;12772;49.794;10.024;2022-11-20T20:40:27;2.78;;;2.35;;
24635;SDS011;12772;49.794;10.024;2022-11-20T20:44:29;2.33;;;1.90;;
24635;SDS011;12772;49.794;10.024;2022-11-20T20:48:48;3.50;;;2.30;;
24635;SDS011;12772;49.794;10.024;2022-11-20T20:52:51;2.22;;;1.67;;
24635;SDS011;12772;49.794;10.024;2022-11-20T20:56:53;2.20;;;2.00;;
24635;SDS011;12772;49.794;10.024;2022-11-20T21:01:01;2.42;;;1.88;;
24635;SDS011;12772;49.794;10.024;2022-11-20T21:05:11;3.20;;;1.35;;
24635;SDS011;12772;49.794;10.024;2022-11-20T21:09:13;1.65;;;1.48;;
24635;SDS011;12772;49.794;10.024;2022-11-20T21:13:15;1.70;;;1.60;;
24635;SDS011;12772;49.794;10.024;2022-11-20T21:17:18;1.60;;;1.50;;
24635;SDS011;12772;49.794;10.024;2022-11-20T21:21:20;2.83;;;1.90;;
24635;SDS011;12772;49.794;10.024;2022-11-20T21:25:39;3.15;;;2.03;;
24635;SDS011;12772;49.794;10.024;2022-11-20T21:29:41;2.50;;;2.13;;
24635;SDS011;12772;49.794;10.024;2022-11-20T21:33:45;1.80;;;1.70;;
24635;SDS011;12772;49.794;10.024;2022-11-20T21:37:47;1.88;;;1.75;;
24635;SDS011;12772;49.794;10.024;2022-11-20T21:41:49;2.85;;;1.95;;
24635;SDS011;12772;49.794;10.024;2022-11-20T21:45:51;2.13;;;1.73;;
24635;SDS011;12772;49.794;10.024;2022-11-20T21:49:56;1.58;;;1.48;;
24635;SDS011;12772;49.794;10.024;2022-11-20T21:53:58;5.63;;;4.40;;
24635;SDS011;12772;49.794;10.024;2022-11-20T21:58:00;5.55;;;3.92;;
24635;SDS011;12772;49.794;10.024;2022-11-20T22:02:02;3.40;;;2.58;;
24635;SDS011;12772;49.794;10.024;2022-11-20T22:06:04;3.30;;;2.30;;
24635;SDS011;12772;49.794;10.024;2022-11-20T22:10:07;1.60;;;1.50;;
24635;SDS011;12772;49.794;10.024;2022-11-20T22:14:09;1.70;;;1.55;;
24635;SDS011;12772;49.794;10.024;2022-11-20T22:18:20;1.70;;;1.60;;
24635;SDS011;12772;49.794;10.024;2022-11-20T22:22:22;1.92;;;1.70;;
24635;SDS011;12772;49.794;10.024;2022-11-20T22:26:26;2.40;;;1.92;;
24635;SDS011;12772;49.794;10.024;2022-11-20T22:30:30;1.60;;;1.50;;
24635;SDS011;12772;49.794;10.024;2022-11-20T22:34:32;2.10;;;1.90;;
24635;SDS011;12772;49.794;10.024;2022-11-20T22:38:34;1.70;;;1.60;;
24635;SDS011;12772;49.794;10.024;2022-11-20T22:42:37;2.58;;;1.58;;
24635;SDS011;12772;49.794;10.024;2022-11-20T22:46:39;1.83;;;1.73;;
24635;SDS011;12772;49.794;10.024;2022-11-20T22:50:41;1.73;;;1.63;;
24635;SDS011;12772;49.794;10.024;2022-11-20T22:54:43;3.08;;;1.50;;
24635;SDS011;12772;49.794;10.024;2022-11-20T22:58:46;1.70;;;1.45;;
24635;SDS011;12772;49.794;10.024;2022-11-20T23:02:49;1.65;;;1.55;;
24635;SDS011;12772;49.794;10.024;2022-11-20T23:06:51;2.53;;;1.70;;
24635;SDS011;12772;49.794;10.024;2022-11-20T23:15:05;2.08;;;1.90;;
24635;SDS011;12772;49.794;10.024;2022-11-20T23:19:09;2.20;;;2.00;;
24635;SDS011;12772;49.794;10.024;2022-11-20T23:23:13;2.92;;;1.50;;
24635;SDS011;12772;49.794;10.024;2022-11-20T23:27:15;4.30;;;1.85;;
24635;SDS011;12772;49.794;10.024;2022-11-20T23:31:17;3.78;;;1.75;;
24635;SDS011;12772;49.794;10.024;2022-11-20T23:35:19;3.38;;;1.83;;
24635;SDS011;12772;49.794;10.024;2022-11-20T23:39:21;3.20;;;1.60;;
24635;SDS011;12772;49.794;10.024;2022-11-20T23:43:24;3.08;;;1.75;;
24635;SDS011;12772;49.794;10.024;2022-11-20T23:47:26;4.00;;;1.73;;
24635;SDS011;12772;49.794;10.024;2022-11-20T23:51:28;1.92;;;1.65;;
24635;SDS011;12772;49.794;10.024;2022-11-20T23:55:30;4.50;;;1.67;;
24635;SDS011;12772;49.794;10.024;2022-11-20T23:59:33;3.15;;;1.70;;
